createdAt,value
2019-03-31T09:47:15.174Z,14.00
2019-03-31T09:49:43.651Z,13.90
2019-03-31T09:52:12.106Z,12.60
2019-03-31T09:54:40.582Z,12.20
2019-03-31T09:57:09.039Z,12.20
2019-03-31T09:59:37.547Z,12.80
2019-03-31T10:02:06.182Z,13.80
2019-03-31T10:04:34.638Z,13.80
2019-03-31T10:07:03.240Z,13.80
2019-03-31T10:09:32.257Z,13.40
2019-03-31T10:12:00.813Z,14.30
2019-03-31T10:14:29.275Z,14.30
2019-03-31T10:16:57.738Z,13.60
2019-03-31T10:19:26.259Z,13.50
2019-03-31T10:21:54.771Z,14.00
2019-03-31T10:24:23.222Z,14.50
2019-03-31T10:26:51.729Z,15.40
2019-03-31T10:29:20.180Z,15.10
2019-03-31T10:31:48.632Z,14.30
2019-03-31T10:34:17.095Z,15.50
2019-03-31T10:36:45.563Z,16.50
2019-03-31T10:39:14.120Z,16.30
2019-03-31T10:41:42.663Z,16.50
2019-03-31T10:44:11.285Z,16.00
2019-03-31T10:46:39.828Z,15.90
2019-03-31T10:49:08.343Z,14.80
2019-03-31T10:51:36.899Z,15.50
2019-03-31T10:54:05.503Z,16.10
2019-03-31T10:56:34.049Z,15.50
2019-03-31T10:59:02.569Z,15.30
2019-03-31T11:01:31.041Z,15.80
2019-03-31T11:03:59.534Z,16.10
2019-03-31T11:06:28.145Z,16.20
2019-03-31T11:08:56.671Z,14.80
2019-03-31T11:11:25.280Z,14.00
2019-03-31T11:13:53.791Z,13.90
2019-03-31T11:16:22.437Z,14.00
2019-03-31T11:18:50.987Z,13.70
2019-03-31T11:21:21.276Z,14.60
2019-03-31T11:23:49.801Z,15.30
2019-03-31T11:26:18.335Z,15.40
2019-03-31T11:28:46.806Z,15.40
2019-03-31T11:31:17.926Z,14.50
2019-03-31T11:33:45.635Z,15.10
2019-03-31T11:36:14.105Z,15.40
2019-03-31T11:38:42.629Z,15.50
2019-03-31T11:41:11.115Z,16.10
2019-03-31T11:43:39.587Z,15.70
2019-03-31T11:46:08.045Z,16.10
2019-03-31T11:48:36.511Z,15.10
2019-03-31T11:51:05.040Z,14.70
2019-03-31T11:53:33.547Z,14.90
2019-03-31T11:56:02.115Z,14.90
2019-03-31T11:58:32.247Z,14.60
2019-03-31T12:01:01.116Z,14.30
2019-03-31T12:03:31.209Z,14.60
2019-03-31T12:06:00.002Z,14.60
2019-03-31T12:08:28.465Z,14.70
2019-03-31T12:10:56.935Z,13.60
2019-03-31T12:13:25.405Z,13.50
2019-03-31T12:15:53.864Z,13.30
2019-03-31T12:18:22.419Z,13.20
2019-03-31T12:20:50.877Z,13.60
2019-03-31T12:23:19.347Z,14.30
2019-03-31T12:25:47.797Z,14.30
2019-03-31T12:28:16.323Z,14.20
2019-03-31T12:30:44.859Z,13.90
2019-03-31T12:33:13.337Z,13.60
2019-03-31T12:35:41.873Z,13.20
2019-03-31T12:38:10.428Z,13.00
2019-03-31T12:40:38.884Z,13.10
2019-03-31T12:43:07.360Z,13.50
2019-03-31T12:45:35.884Z,13.20
2019-03-31T12:48:04.618Z,13.20
2019-03-31T12:50:33.064Z,13.40
2019-03-31T12:53:01.598Z,13.30
2019-03-31T12:55:30.054Z,13.30
2019-03-31T12:57:58.535Z,13.50
2019-03-31T13:00:27.100Z,13.10
2019-03-31T13:02:55.615Z,13.30
2019-03-31T13:05:24.091Z,13.60
2019-03-31T13:07:56.704Z,13.70
2019-03-31T13:10:22.740Z,13.20
2019-03-31T13:12:51.204Z,13.60
2019-03-31T13:15:19.735Z,13.80
2019-03-31T13:17:48.202Z,13.70
2019-03-31T13:20:16.820Z,14.30
2019-03-31T13:22:45.991Z,14.30
2019-03-31T13:25:14.849Z,14.20
2019-03-31T13:27:43.350Z,14.20
2019-03-31T13:30:12.049Z,14.20
2019-03-31T13:32:40.497Z,13.90
2019-03-31T13:35:09.028Z,14.00
2019-03-31T13:37:37.543Z,14.20
2019-03-31T13:40:06.936Z,13.90
2019-03-31T13:42:35.391Z,14.00
2019-03-31T13:45:06.812Z,13.70
2019-03-31T13:47:35.342Z,13.20
2019-03-31T13:50:08.013Z,13.60
2019-03-31T13:52:36.480Z,13.90
2019-03-31T13:55:08.398Z,14.20
2019-03-31T13:57:37.561Z,13.70
2019-03-31T14:00:09.394Z,13.90
2019-03-31T14:02:37.933Z,13.90
2019-03-31T14:05:06.771Z,13.40
2019-03-31T14:07:35.299Z,13.50
2019-03-31T14:10:05.994Z,14.00
2019-03-31T14:12:34.565Z,14.20
2019-03-31T14:15:18.131Z,14.20
2019-03-31T14:17:34.091Z,13.60
2019-03-31T14:20:02.736Z,13.30
2019-03-31T14:22:33.037Z,13.70
2019-03-31T14:25:01.563Z,13.70
2019-03-31T14:27:30.046Z,14.00
2019-03-31T14:29:58.584Z,13.90
2019-03-31T14:32:27.041Z,13.60
2019-03-31T14:34:55.537Z,13.70
2019-03-31T14:37:24.021Z,14.00
2019-03-31T14:39:52.553Z,13.70
2019-03-31T14:42:21.059Z,13.80
2019-03-31T14:44:49.619Z,13.20
2019-03-31T14:47:18.076Z,13.00
2019-03-31T14:49:46.537Z,13.30
2019-03-31T14:52:26.598Z,13.50
2019-03-31T14:54:45.485Z,13.60
2019-03-31T14:57:13.992Z,13.60
2019-03-31T14:59:42.527Z,13.50
2019-03-31T15:02:11.002Z,13.30
2019-03-31T15:04:39.463Z,13.40
2019-03-31T15:07:07.945Z,13.20
2019-03-31T15:09:36.652Z,12.90
2019-03-31T15:12:05.372Z,13.40
2019-03-31T15:14:36.555Z,13.00
2019-03-31T15:17:05.130Z,12.60
2019-03-31T15:19:33.597Z,12.90
2019-03-31T15:22:02.117Z,12.90
2019-03-31T15:24:30.600Z,12.80
2019-03-31T15:26:59.178Z,13.10
2019-03-31T15:29:27.828Z,12.90
2019-03-31T15:31:56.292Z,12.90
2019-03-31T15:34:24.791Z,12.80
2019-03-31T15:36:53.387Z,12.60
2019-03-31T15:39:21.856Z,12.70
2019-03-31T15:41:50.312Z,12.70
2019-03-31T15:44:18.755Z,12.90
2019-03-31T15:46:47.218Z,12.60
2019-03-31T15:49:15.737Z,12.60
2019-03-31T15:51:44.201Z,12.70
2019-03-31T15:54:12.664Z,12.70
2019-03-31T15:56:41.129Z,12.80
2019-03-31T15:59:09.584Z,12.00
2019-03-31T16:01:38.070Z,12.10
2019-03-31T16:04:06.687Z,12.20
2019-03-31T16:06:35.209Z,12.20
2019-03-31T16:09:05.508Z,12.00
2019-03-31T16:11:33.985Z,11.70
2019-03-31T16:14:02.895Z,11.90
2019-03-31T16:16:31.397Z,11.80
2019-03-31T16:19:00.023Z,11.70
2019-03-31T16:21:28.471Z,11.60
2019-03-31T16:23:56.938Z,11.80
2019-03-31T16:26:25.409Z,11.70
2019-03-31T16:28:53.890Z,11.60
2019-03-31T16:31:22.432Z,11.60
2019-03-31T16:33:50.916Z,11.70
2019-03-31T16:36:19.388Z,11.40
2019-03-31T16:38:47.873Z,11.40
2019-03-31T16:41:16.388Z,11.30
2019-03-31T16:43:44.841Z,11.30
2019-03-31T16:46:13.299Z,11.20
2019-03-31T16:48:41.744Z,11.20
2019-03-31T16:51:10.278Z,11.10
2019-03-31T16:53:38.766Z,11.10
2019-03-31T16:56:07.254Z,10.90
2019-03-31T16:58:35.755Z,10.90
2019-03-31T17:01:04.241Z,10.90
2019-03-31T17:03:32.688Z,10.60
2019-03-31T17:06:01.152Z,10.50
2019-03-31T17:08:29.755Z,10.50
2019-03-31T17:10:58.270Z,10.50
2019-03-31T17:13:26.739Z,10.40
2019-03-31T17:15:55.280Z,10.40
2019-03-31T17:18:23.736Z,10.30
2019-03-31T17:20:52.746Z,10.10
2019-03-31T17:23:31.196Z,10.00
2019-03-31T17:26:02.182Z,9.80
2019-03-31T17:28:30.787Z,9.70
2019-03-31T17:30:59.316Z,9.60
2019-03-31T17:33:30.333Z,9.50
2019-03-31T17:36:00.789Z,9.40
2019-03-31T17:38:29.280Z,9.40
2019-03-31T17:40:57.802Z,9.30
2019-03-31T17:45:05.203Z,9.20
2019-03-31T17:46:14.377Z,9.10
2019-03-31T17:48:42.852Z,8.90
2019-03-31T17:51:11.306Z,8.90
2019-03-31T17:53:39.808Z,8.80
2019-03-31T17:56:08.271Z,8.70
2019-03-31T17:58:36.863Z,8.70
2019-03-31T18:01:05.593Z,8.60
2019-03-31T18:03:34.127Z,8.60
2019-03-31T18:06:02.940Z,8.50
2019-03-31T18:08:35.176Z,8.40
2019-03-31T18:11:03.640Z,8.40
2019-03-31T18:13:32.123Z,8.30
2019-03-31T18:16:00.578Z,8.10
2019-03-31T18:18:29.072Z,8.10
2019-03-31T18:20:57.524Z,8.10
2019-03-31T18:23:26.119Z,8.00
2019-03-31T18:25:54.586Z,7.80
2019-03-31T18:28:23.073Z,7.80
2019-03-31T18:30:51.565Z,7.70
2019-03-31T18:33:20.032Z,7.70
2019-03-31T18:35:48.517Z,7.60
2019-03-31T18:38:17.047Z,7.60
2019-03-31T18:40:45.592Z,7.50
2019-03-31T18:43:14.117Z,7.40
2019-03-31T18:45:42.603Z,7.40
2019-03-31T18:48:11.079Z,7.40
2019-03-31T18:50:39.571Z,7.30
2019-03-31T18:53:09.661Z,7.20
2019-03-31T18:55:57.927Z,7.10
2019-03-31T18:58:40.375Z,7.10
2019-03-31T19:01:26.602Z,7.10
2019-03-31T19:03:56.717Z,7.00
2019-03-31T19:06:26.860Z,6.90
2019-03-31T19:08:59.938Z,6.90
2019-03-31T19:11:30.277Z,6.80
2019-03-31T19:14:23.897Z,6.70
2019-03-31T19:16:51.319Z,6.70
2019-03-31T19:19:25.192Z,6.60
2019-03-31T19:22:03.787Z,6.60
2019-03-31T19:24:51.722Z,6.50
2019-03-31T19:27:24.546Z,6.50
2019-03-31T19:30:10.627Z,6.40
2019-03-31T19:32:42.525Z,6.30
2019-03-31T19:35:15.609Z,6.30
2019-03-31T19:38:01.691Z,6.30
2019-03-31T19:40:41.624Z,6.20
2019-03-31T19:43:23.751Z,6.10
2019-03-31T19:45:53.933Z,6.10
2019-03-31T19:48:39.529Z,6.00
2019-03-31T19:51:21.622Z,6.00
2019-03-31T19:53:51.789Z,5.90
2019-03-31T19:56:38.503Z,5.80
2019-03-31T19:59:24.435Z,5.80
2019-03-31T20:02:10.411Z,5.80
2019-03-31T20:04:49.072Z,5.70
2019-03-31T20:07:27.972Z,5.60
2019-03-31T20:10:18.561Z,5.60
2019-03-31T20:12:57.795Z,5.50
2019-03-31T20:15:44.911Z,5.50
2019-03-31T20:18:15.078Z,5.40
2019-03-31T20:21:01.129Z,5.40
2019-03-31T20:23:31.399Z,5.30
2019-03-31T20:26:10.849Z,5.20
2019-03-31T20:28:51.609Z,5.20
2019-03-31T20:31:21.705Z,5.20
2019-03-31T20:43:58.493Z,5.00
2019-03-31T20:46:30.077Z,4.90
2019-03-31T20:48:58.531Z,4.80
2019-03-31T20:51:27.181Z,4.80
2019-03-31T20:53:55.643Z,4.80
2019-03-31T20:56:24.165Z,4.70
2019-03-31T20:58:52.699Z,4.70
2019-03-31T21:01:21.319Z,4.60
2019-03-31T21:03:49.978Z,4.60
2019-03-31T21:06:18.587Z,4.50
2019-03-31T21:08:47.082Z,4.50
2019-03-31T21:11:15.708Z,4.40
2019-03-31T21:13:46.080Z,4.40
2019-03-31T21:16:14.756Z,4.40
2019-03-31T21:18:43.356Z,4.30
2019-03-31T21:21:11.843Z,4.30
2019-03-31T21:23:40.373Z,4.30
2019-03-31T21:26:08.944Z,4.20
2019-03-31T21:28:37.516Z,4.20
2019-03-31T21:31:05.982Z,4.10
2019-03-31T21:33:34.431Z,4.00
2019-03-31T21:36:02.896Z,4.10
2019-03-31T21:38:31.419Z,4.00
2019-03-31T21:40:59.898Z,3.90
2019-03-31T21:43:32.850Z,3.90
2019-03-31T21:46:01.362Z,3.90
2019-03-31T21:48:29.830Z,3.80
2019-03-31T21:50:58.381Z,3.80
